Time;durP1;ratioP1;P1;durP2;ratioP2;P2;SDS_P1;SDS_P2;PMS_P1;PMS_P2;Temp;Humidity;BMP_temperature;BMP_pressure;BME280_temperature;BME280_humidity;BME280_pressure;Samples;Min_cycle;Max_cycle;Signal;HPM_P1;HPM_P2
2022/02/04 00:02:39;;;;;;;79.60;34.10;;;;;;;0.57;80.29;98344.81;106170;1279;138018;-76
2022/02/04 00:20:32;;;;;;;79.40;35.00;;;;;;;0.53;81.80;98340.73;106524;1279;22600;-75
2022/02/04 00:28:04;;;;;;;78.30;33.70;;;;;;;0.53;82.61;98345.24;106343;1277;24376;-75
2022/02/04 00:30:37;;;;;;;59.50;25.80;;;;;;;0.52;83.08;98343.55;106397;1277;137517;-75
2022/02/04 00:33:06;;;;;;;66.40;29.80;;;;;;;0.49;83.55;98341.25;106510;1277;24557;-76
2022/02/04 00:38:37;;;;;;;39.40;16.70;;;;;;;0.49;84.11;98333.95;106097;1277;25434;-76
2022/02/04 00:41:08;;;;;;;39.10;16.50;;;;;;;0.50;84.68;98333.17;106701;1279;23167;-76
2022/02/04 00:43:37;;;;;;;33.20;15.20;;;;;;;0.50;84.97;98329.42;106244;1278;137907;-76
2022/02/04 00:46:14;;;;;;;32.50;15.30;;;;;;;0.48;85.10;98330.44;106774;1279;22556;-76
2022/02/04 00:51:34;;;;;;;27.20;13.60;;;;;;;0.51;85.49;98326.38;106399;1277;23350;-77
2022/02/04 01:27:12;;;;;;;31.30;13.00;;;;;;;0.88;86.75;98257.09;107032;1276;22576;-77
2022/02/04 01:29:52;;;;;;;26.30;12.20;;;;;;;0.91;86.56;98248.70;106262;1277;138367;-77
2022/02/04 01:32:19;;;;;;;30.30;12.60;;;;;;;0.96;86.60;98248.47;106466;1277;25375;-77
2022/02/04 01:34:46;;;;;;;27.90;12.30;;;;;;;1.00;86.54;98242.61;106453;1277;22663;-77
2022/02/04 01:37:13;;;;;;;25.90;11.40;;;;;;;1.03;86.67;98240.79;106746;1277;137468;-78
2022/02/04 01:39:40;;;;;;;28.60;12.10;;;;;;;1.05;86.75;98228.70;106318;1277;22557;-78
2022/02/04 01:42:07;;;;;;;27.20;12.30;;;;;;;1.06;86.22;98225.90;105891;1277;137956;-78
2022/02/04 01:44:34;;;;;;;30.10;12.40;;;;;;;1.06;86.15;98218.39;106222;1279;25269;-78
2022/02/04 01:47:02;;;;;;;23.70;11.60;;;;;;;1.05;85.78;98213.55;106404;1279;22625;-77
2022/02/04 01:49:30;;;;;;;25.00;12.40;;;;;;;1.01;85.75;98205.79;106185;1277;137463;-77
2022/02/04 01:51:57;;;;;;;28.20;12.30;;;;;;;1.01;86.08;98201.34;106186;1278;22547;-77
2022/02/04 01:54:24;;;;;;;25.40;12.60;;;;;;;1.01;86.27;98200.26;106133;1277;138318;-77
2022/02/04 01:56:52;;;;;;;26.20;12.50;;;;;;;1.02;86.24;98195.32;106208;1277;25520;-77
2022/02/04 01:59:19;;;;;;;26.00;12.70;;;;;;;1.05;86.44;98193.29;106132;1279;25457;-77
2022/02/04 02:01:46;;;;;;;23.50;11.70;;;;;;;1.09;86.04;98190.73;105956;1279;138740;-77
2022/02/04 02:04:15;;;;;;;29.60;12.50;;;;;;;1.13;86.05;98191.61;106063;1278;25367;-77
2022/02/04 02:07:00;;;;;;;25.50;12.20;;;;;;;1.16;86.51;98187.21;106005;1279;137559;-77
2022/02/04 02:09:43;;;;;;;24.10;12.50;;;;;;;1.17;86.12;98182.57;106506;1279;26496;-77
2022/02/04 02:12:12;;;;;;;25.80;11.60;;;;;;;1.14;85.95;98183.77;105846;1278;137613;-77
2022/02/04 02:14:39;;;;;;;26.20;11.80;;;;;;;1.12;86.05;98177.44;106047;1277;25265;-77
2022/02/04 02:47:30;;;;;;;16.20;7.80;;;;;;;1.15;86.52;98167.37;106028;1277;25262;-74
2022/02/04 03:03:09;;;;;;;24.10;12.50;;;;;;;1.16;87.13;98166.91;107000;1276;22690;-78
2022/02/04 03:05:36;;;;;;;;;;;;;;;1.21;87.21;98159.91;106563;1276;22551;-77
2022/02/04 03:08:07;;;;;;;23.60;11.50;;;;;;;1.24;86.97;98161.05;106454;1276;124108;-77
2022/02/04 03:10:34;;;;;;;25.60;13.10;;;;;;;1.26;86.84;98155.36;106200;1277;23955;-77
2022/02/04 03:13:02;;;;;;;21.80;11.30;;;;;;;1.24;86.91;98156.14;106536;1277;138006;-78
2022/02/04 03:15:29;;;;;;;23.30;11.50;;;;;;;1.23;86.52;98152.45;106528;1277;22703;-77
2022/02/04 03:18:03;;;;;;;19.60;11.00;;;;;;;1.21;86.74;98153.26;106269;1277;138599;-77
2022/02/04 03:20:42;;;;;;;20.80;11.30;;;;;;;1.20;86.70;98153.95;106331;1277;22573;-77
2022/02/04 03:23:09;;;;;;;25.10;11.50;;;;;;;1.21;86.93;98160.48;106368;1277;31717;-77
2022/02/04 03:25:40;;;;;;;18.80;10.10;;;;;;;1.21;87.06;98156.52;106325;1277;137539;-77
2022/02/04 03:28:12;;;;;;;23.00;10.10;;;;;;;1.22;86.98;98155.70;106438;1277;22615;-77
2022/02/04 03:30:41;;;;;;;15.70;9.10;;;;;;;1.22;86.90;98153.14;106279;1279;137832;-77
2022/02/04 03:33:09;;;;;;;16.70;9.00;;;;;;;1.22;86.98;98151.70;106986;1277;22553;-77
2022/02/04 03:35:37;;;;;;;16.70;8.70;;;;;;;1.24;86.98;98145.73;106419;1277;23329;-77
2022/02/04 03:38:04;;;;;;;15.90;8.10;;;;;;;1.24;87.14;98146.41;106971;1278;137377;-77
2022/02/04 03:40:45;;;;;;;14.20;8.90;;;;;;;1.25;87.25;98138.60;106167;1278;22713;-76
2022/02/04 03:43:12;;;;;;;19.60;9.30;;;;;;;1.25;87.11;98137.04;106425;1278;137633;-76
2022/02/04 03:45:40;;;;;;;21.60;10.50;;;;;;;1.23;87.21;98135.45;106819;1277;25463;-76
2022/02/04 03:48:07;;;;;;;19.60;9.60;;;;;;;1.24;87.19;98134.34;106383;1277;138763;-76
2022/02/04 03:50:34;;;;;;;17.20;8.20;;;;;;;1.26;87.20;98133.59;106526;1278;25331;-77
2022/02/04 03:53:03;;;;;;;19.90;9.10;;;;;;;1.27;87.24;98135.16;106717;1277;22584;-77
2022/02/04 03:55:31;;;;;;;19.90;8.50;;;;;;;1.29;87.41;98131.84;106453;1277;137820;-77
2022/02/04 03:57:58;;;;;;;21.10;10.10;;;;;;;1.30;87.27;98130.64;106383;1277;24302;-77
2022/02/04 04:00:25;;;;;;;17.60;9.70;;;;;;;1.30;87.11;98125.31;106247;1277;138279;-77
2022/02/04 04:02:51;;;;;;;19.30;9.10;;;;;;;1.30;87.18;98123.13;106777;1277;22595;-76
2022/02/04 04:05:19;;;;;;;17.80;8.00;;;;;;;1.31;87.24;98123.17;106644;1278;22600;-76
2022/02/04 04:07:50;;;;;;;14.60;7.70;;;;;;;1.34;87.27;98124.64;106454;1277;137443;-76
2022/02/04 04:10:23;;;;;;;13.90;7.70;;;;;;;1.35;87.41;98121.10;106607;1277;22338;-76
2022/02/04 04:12:53;;;;;;;15.20;7.80;;;;;;;1.36;87.34;98116.86;107112;1277;138976;-76
2022/02/04 04:15:22;;;;;;;14.90;7.50;;;;;;;1.36;87.25;98109.92;106773;1277;23925;-76
2022/02/04 04:17:49;;;;;;;15.70;8.70;;;;;;;1.37;87.46;98110.11;106728;1277;138307;-76
2022/02/04 04:20:17;;;;;;;13.40;6.50;;;;;;;1.43;87.37;98110.65;106624;1277;25515;-76
2022/02/04 04:22:45;;;;;;;11.40;5.90;;;;;;;1.45;87.23;98106.75;107195;1277;22592;-76
2022/02/04 04:25:13;;;;;;;10.30;6.20;;;;;;;1.45;87.19;98111.95;107074;1277;137685;-76
2022/02/04 04:27:42;;;;;;;13.20;6.70;;;;;;;1.46;87.29;98106.00;106423;1278;22563;-76
2022/02/04 04:30:11;;;;;;;12.40;7.30;;;;;;;1.46;87.31;98104.42;106630;1277;137475;-76
2022/02/04 04:32:39;;;;;;;11.20;6.30;;;;;;;1.49;87.18;98100.52;106117;1281;22565;-76
2022/02/04 04:35:10;;;;;;;14.50;6.90;;;;;;;1.50;87.05;98100.20;106262;1279;24095;-76
2022/02/04 04:38:04;;;;;;;12.80;6.50;;;;;;;1.51;87.08;98095.14;106115;1278;137279;-76
2022/02/04 05:29:44;;;;;;;13.30;8.10;;;;;;;1.19;87.18;98065.02;106513;1277;24233;-77
2022/02/04 05:32:11;;;;;;;13.70;7.60;;;;;;;1.19;87.25;98061.55;106269;1277;138138;-77
2022/02/04 05:34:39;;;;;;;16.00;9.10;;;;;;;1.19;87.12;98063.00;106086;1278;22573;-77
2022/02/04 05:37:22;;;;;;;13.10;8.10;;;;;;;1.19;87.41;98059.86;106775;1277;137402;-75
2022/02/04 05:40:00;;;;;;;13.50;8.00;;;;;;;1.18;87.41;98059.23;106729;1278;25304;-76
2022/02/04 05:42:31;;;;;;;25.40;14.10;;;;;;;1.17;87.27;98062.78;106107;1281;137744;-76
2022/02/04 05:45:05;;;;;;;21.30;11.70;;;;;;;1.18;87.36;98066.25;106275;1277;25456;-76
2022/02/04 05:47:35;;;;;;;23.00;13.00;;;;;;;1.21;87.37;98067.15;106511;1278;22581;-76
2022/02/04 05:50:25;;;;;;;25.30;13.70;;;;;;;1.24;87.44;98071.41;106305;1277;137493;-76
2022/02/04 05:58:43;;;;;;;25.30;13.80;;;;;;;1.22;87.16;98083.71;106205;1278;25585;-77
2022/02/04 06:24:35;;;;;;;29.00;15.40;;;;;;;1.00;87.18;98087.67;105906;1277;137726;-76
2022/02/04 06:27:03;;;;;;;26.70;15.70;;;;;;;0.99;87.56;98090.27;106350;1277;25255;-77
2022/02/04 06:29:32;;;;;;;30.70;16.50;;;;;;;0.99;87.31;98098.85;107117;1277;22565;-76
2022/02/04 06:31:59;;;;;;;30.80;15.60;;;;;;;0.98;87.68;98097.61;106457;1277;137555;-76
2022/02/04 06:34:26;;;;;;;27.00;16.00;;;;;;;0.99;87.39;98097.73;106233;1277;22572;-77
2022/02/04 06:36:53;;;;;;;33.10;17.60;;;;;;;0.97;87.78;98099.38;106214;1277;138715;-77
2022/02/04 06:39:20;;;;;;;34.50;18.00;;;;;;;0.99;87.85;98099.14;106066;1277;24381;-77
2022/02/04 06:41:47;;;;;;;35.20;16.90;;;;;;;1.04;88.20;98096.96;106415;1278;24366;-77
2022/02/04 06:44:14;;;;;;;34.00;17.10;;;;;;;1.08;88.23;98094.27;106104;1278;137740;-77
2022/02/04 06:46:41;;;;;;;33.30;17.20;;;;;;;1.11;88.13;98089.38;106815;1278;24369;-77
2022/02/04 06:49:08;;;;;;;37.50;17.90;;;;;;;1.12;87.62;98089.98;106158;1277;138394;-78
2022/02/04 06:51:35;;;;;;;30.50;16.10;;;;;;;1.16;88.13;98085.64;106484;1277;27575;-77
2022/02/04 06:54:02;;;;;;;29.10;14.50;;;;;;;1.18;87.91;98089.24;106090;1277;22544;-77
2022/02/04 06:56:33;;;;;;;28.00;15.30;;;;;;;1.23;88.04;98090.09;107474;1277;138152;-77
2022/02/04 06:59:01;;;;;;;26.40;14.40;;;;;;;1.25;88.15;98090.19;106323;1277;24268;-77
2022/02/04 07:01:29;;;;;;;27.40;14.10;;;;;;;1.29;88.30;98089.95;106577;1277;137876;-77
2022/02/04 07:04:03;;;;;;;27.60;14.60;;;;;;;1.36;88.45;98085.05;106367;1277;25258;-77
2022/02/04 07:06:33;;;;;;;24.30;13.80;;;;;;;1.45;88.44;98082.66;105967;1278;139162;-77
2022/02/04 07:09:15;;;;;;;28.10;14.70;;;;;;;1.53;88.15;98085.41;107257;1277;22569;-77
2022/02/04 07:12:33;;;;;;;28.90;13.70;;;;;;;1.58;88.13;98080.44;107060;1278;22564;-77
2022/02/04 07:17:28;;;;;;;28.20;14.70;;;;;;;1.64;87.42;98082.17;106818;1277;24233;-77
2022/02/04 07:19:56;;;;;;;33.50;16.50;;;;;;;1.69;87.52;98085.80;105938;1277;137883;-77
2022/02/04 07:22:27;;;;;;;30.10;15.70;;;;;;;1.75;87.70;98084.02;106302;1277;22708;-76
2022/02/04 07:24:56;;;;;;;32.00;16.20;;;;;;;1.82;87.75;98091.79;106283;1278;138199;-76
2022/02/04 07:27:24;;;;;;;30.40;16.70;;;;;;;1.87;87.52;98094.62;106133;1278;22567;-76
2022/02/04 07:29:53;;;;;;;36.00;16.90;;;;;;;1.87;87.18;98093.14;106150;1278;25393;-76
2022/02/04 07:35:30;;;;;;;42.00;18.40;;;;;;;1.90;87.09;98088.69;106405;1277;24309;-77
2022/02/04 07:40:54;;;;;;;34.80;19.40;;;;;;;2.11;87.63;98091.72;105978;1278;25585;-77
2022/02/04 07:43:25;;;;;;;30.70;18.60;;;;;;;2.21;87.67;98090.81;106315;1278;137998;-77
2022/02/04 07:45:56;;;;;;;31.30;18.00;;;;;;;2.29;87.42;98093.98;106715;1276;22649;-77
2022/02/04 07:48:39;;;;;;;30.60;17.70;;;;;;;2.41;87.29;98086.84;106780;1277;138291;-77
2022/02/04 07:51:07;;;;;;;;;;;;;;;2.52;87.16;98081.66;106843;1277;22538;-77
2022/02/04 07:53:36;;;;;;;32.90;16.30;;;;;;;2.62;87.05;98084.30;106312;1277;23242;-77
2022/02/04 07:56:21;;;;;;;23.30;13.20;;;;;;;2.70;87.01;98086.46;106923;1278;138260;-76
2022/02/04 07:58:57;;;;;;;20.20;11.40;;;;;;;2.73;86.41;98082.17;106869;1277;22568;-76
2022/02/04 08:01:30;;;;;;;25.80;14.60;;;;;;;2.69;85.80;98077.80;106601;1277;137745;-76
2022/02/04 08:06:31;;;;;;;29.20;15.80;;;;;;;2.74;85.98;98080.48;106039;1277;138679;-75
2022/02/04 08:57:11;;;;;;;44.20;26.30;;;;;;;3.49;84.20;98110.77;106078;1277;138390;-78
2022/02/04 09:02:43;;;;;;;52.10;27.60;;;;;;;3.59;83.71;98107.92;106067;1277;137970;-78
2022/02/04 09:05:13;;;;;;;59.00;30.40;;;;;;;3.65;83.99;98108.07;106316;1277;22629;-78
2022/02/04 09:08:08;;;;;;;60.30;29.90;;;;;;;3.71;84.00;98109.76;106248;1277;137716;-78
2022/02/04 09:10:36;;;;;;;54.80;29.60;;;;;;;3.76;83.77;98111.73;106508;1277;30231;-78
2022/02/04 09:23:32;;;;;;;43.00;25.00;;;;;;;4.05;83.73;98123.13;106377;1277;22584;-79
2022/02/04 09:26:05;;;;;;;43.30;23.20;;;;;;;4.12;83.79;98123.47;106506;1277;138234;-79
2022/02/04 09:28:46;;;;;;;36.30;21.80;;;;;;;4.21;83.55;98122.58;106553;1277;23932;-79
2022/02/04 09:31:13;;;;;;;36.00;20.00;;;;;;;4.29;83.56;98120.11;106473;1277;138100;-79
2022/02/04 09:33:41;;;;;;;34.10;19.30;;;;;;;4.38;83.53;98117.41;106334;1277;23270;-78
2022/02/04 09:36:08;;;;;;;33.10;20.00;;;;;;;4.44;83.28;98115.64;106777;1277;24215;-79
2022/02/04 09:38:35;;;;;;;30.70;18.10;;;;;;;4.51;83.08;98114.71;106379;1277;137516;-79
2022/02/04 09:41:02;;;;;;;36.50;18.50;;;;;;;4.57;83.08;98113.17;106474;1277;22945;-77
2022/02/04 09:43:30;;;;;;;26.80;17.20;;;;;;;4.65;82.74;98113.19;106023;1277;137283;-78
2022/02/04 09:45:58;;;;;;;27.10;18.10;;;;;;;4.70;82.32;98110.80;106270;1277;24277;-80
2022/02/04 09:48:25;;;;;;;31.60;17.20;;;;;;;4.74;82.25;98112.55;106052;1277;23065;-79
2022/02/04 09:50:54;;;;;;;31.20;18.60;;;;;;;4.79;82.23;98113.66;106198;1277;137874;-79
2022/02/04 10:18:08;;;;;;;28.40;16.40;;;;;;;4.98;78.80;98085.30;106278;1277;23925;-78
2022/02/04 10:20:50;;;;;;;32.20;17.70;;;;;;;4.98;78.87;98084.98;106344;1277;137621;-79
2022/02/04 10:23:17;;;;;;;26.40;15.80;;;;;;;4.99;78.63;98081.62;106461;1277;22573;-78
2022/02/04 10:25:44;;;;;;;29.00;16.50;;;;;;;5.00;78.57;98084.25;106456;1277;138616;-79
2022/02/04 10:28:26;;;;;;;29.30;15.90;;;;;;;5.03;78.27;98077.83;106206;1277;22547;-80
2022/02/04 10:31:28;;;;;;;29.00;15.20;;;;;;;5.04;77.80;98073.52;106139;1277;137923;-80
2022/02/04 10:34:11;;;;;;;32.00;17.00;;;;;;;5.02;77.55;98071.83;106319;1277;24125;-76
2022/02/04 10:37:16;;;;;;;31.00;16.50;;;;;;;4.99;77.94;98071.23;106242;1277;22576;-77
2022/02/04 10:40:04;;;;;;;38.10;17.60;;;;;;;5.00;77.70;98071.46;106275;1277;22635;-79
2022/02/04 10:42:58;;;;;;;34.30;18.30;;;;;;;5.01;77.85;98071.13;106307;1277;22661;-76
2022/02/04 10:48:36;;;;;;;29.50;17.50;;;;;;;5.02;77.38;98075.40;106193;1276;22581;-77
2022/02/04 10:54:22;;;;;;;34.10;19.80;;;;;;;5.01;77.14;98065.73;106740;1277;22628;-77
2022/02/04 10:57:06;;;;;;;38.70;21.00;;;;;;;5.02;77.33;98063.12;106210;1277;138260;-79
2022/02/04 11:02:39;;;;;;;41.00;22.50;;;;;;;5.09;77.33;98054.05;106008;1277;138509;-77
2022/02/04 11:05:48;;;;;;;41.70;21.10;;;;;;;5.15;77.32;98055.12;106998;1275;25225;-77
2022/02/04 11:08:45;;;;;;;40.80;22.40;;;;;;;5.22;77.25;98048.55;106043;1277;138001;-77
2022/02/04 11:34:13;;;;;;;32.60;19.70;;;;;;;5.78;76.06;98031.42;106070;1282;137919;-78
2022/02/04 11:52:01;;;;;;;30.50;17.50;;;;;;;5.67;74.99;98020.40;106158;1277;137936;-80
2022/02/04 11:54:32;;;;;;;33.80;18.00;;;;;;;5.60;75.25;98023.36;106068;1277;29815;-78
2022/02/04 11:56:58;;;;;;;32.40;19.00;;;;;;;5.56;75.25;98018.91;106091;1277;139763;-78
2022/02/04 11:59:41;;;;;;;34.30;17.80;;;;;;;5.54;75.14;98018.68;106131;1277;22564;-78
2022/02/04 12:02:34;;;;;;;36.30;19.10;;;;;;;5.49;74.99;98018.02;106052;1277;137805;-76
2022/02/04 12:05:15;;;;;;;36.10;20.40;;;;;;;5.45;75.24;98017.61;106441;1277;29156;-78
2022/02/04 12:07:43;;;;;;;33.90;20.20;;;;;;;5.41;75.41;98014.73;106100;1277;137698;-78
2022/02/04 12:10:13;;;;;;;36.60;19.60;;;;;;;5.38;75.77;98015.21;106332;1277;22763;-78
2022/02/04 12:12:56;;;;;;;34.30;20.00;;;;;;;5.35;76.03;98013.37;106192;1277;227843;-78
2022/02/04 12:15:58;;;;;;;35.80;19.70;;;;;;;5.29;76.13;98007.77;106260;1277;137644;-79
2022/02/04 12:18:51;;;;;;;33.90;18.20;;;;;;;5.24;75.84;98012.23;106272;1277;22590;-78
2022/02/04 12:21:20;;;;;;;34.30;17.90;;;;;;;5.20;75.41;98008.04;105694;1277;138015;-78
2022/02/04 12:23:49;;;;;;;36.10;18.80;;;;;;;5.17;75.29;98012.95;105986;1277;22555;-78
2022/02/04 12:26:37;;;;;;;28.40;17.00;;;;;;;5.13;75.63;98018.39;106111;1277;138419;-78
2022/02/04 12:29:06;;;;;;;33.30;19.10;;;;;;;5.07;75.39;98017.27;105966;1277;25492;-78
2022/02/04 12:31:35;;;;;;;36.10;18.20;;;;;;;4.99;75.32;98016.17;106421;1277;138098;-78
2022/02/04 12:34:03;;;;;;;29.60;17.10;;;;;;;4.93;75.50;98013.54;106556;1277;22571;-78
2022/02/04 12:36:51;;;;;;;30.80;16.70;;;;;;;4.86;75.83;98007.36;106302;1277;22639;-78
2022/02/04 12:39:25;;;;;;;35.10;17.50;;;;;;;4.84;76.17;98014.30;106441;1277;137657;-78
2022/02/04 12:42:04;;;;;;;35.10;18.60;;;;;;;4.82;76.18;98011.92;106431;1277;25634;-78
2022/02/04 12:44:36;;;;;;;;;;;;;;;4.81;76.43;98012.50;106307;1277;137922;-78
2022/02/04 12:47:06;;;;;;;34.10;18.10;;;;;;;4.82;76.58;98015.73;106393;1277;22570;-80
2022/02/04 12:49:50;;;;;;;35.20;19.30;;;;;;;4.83;76.91;98013.14;106909;1277;138052;-77
2022/02/04 12:55:08;;;;;;;31.70;17.80;;;;;;;4.79;76.50;98013.77;106573;1277;22547;-78
2022/02/04 12:57:54;;;;;;;35.30;20.10;;;;;;;4.74;76.61;98010.16;106439;1277;137883;-78
2022/02/04 13:03:17;;;;;;;42.20;21.50;;;;;;;4.78;77.27;98014.23;106415;1277;137988;-78
2022/02/04 13:11:15;;;;;;;40.00;22.60;;;;;;;4.76;77.40;98006.72;106687;1277;24377;-77
2022/02/04 13:13:50;;;;;;;40.80;21.80;;;;;;;4.75;77.42;98008.52;106400;1277;138176;-78
2022/02/04 13:16:27;;;;;;;42.60;22.70;;;;;;;4.73;77.52;98005.88;106721;1277;22764;-78
2022/02/04 13:19:01;;;;;;;42.40;22.40;;;;;;;4.72;77.48;97998.48;106582;1277;24225;-78
2022/02/04 13:21:30;;;;;;;37.70;21.90;;;;;;;4.72;77.66;97988.83;106521;1277;138033;-78
2022/02/04 13:24:05;;;;;;;40.90;23.00;;;;;;;4.73;77.92;97988.32;106461;1277;25347;-78
2022/02/04 13:26:33;;;;;;;43.00;22.70;;;;;;;4.76;78.24;97989.34;106561;1277;137999;-79
2022/02/04 13:29:02;;;;;;;44.40;23.30;;;;;;;4.77;78.15;97983.92;106325;1277;22553;-78
2022/02/04 13:31:31;;;;;;;;;;;;;;;4.80;78.26;97983.49;106284;1277;137648;-78
2022/02/04 13:33:59;;;;;;;42.50;23.10;;;;;;;4.81;78.37;97982.63;106567;1277;23929;-79
2022/02/04 13:36:38;;;;;;;47.70;24.60;;;;;;;4.82;78.40;97978.55;106834;1277;25477;-78
2022/02/04 13:39:22;;;;;;;46.70;23.60;;;;;;;4.84;78.41;97978.69;106058;1277;138295;-78
2022/02/04 13:42:12;;;;;;;47.30;22.80;;;;;;;4.86;78.38;97979.47;106081;1277;22553;-78
2022/02/04 13:48:01;;;;;;;43.20;23.40;;;;;;;4.86;78.23;97971.16;106224;1277;30279;-78
2022/02/04 13:51:02;;;;;;;37.60;20.90;;;;;;;4.83;78.47;97972.42;106488;1277;138088;-78
2022/02/04 13:54:01;;;;;;;39.30;20.50;;;;;;;4.81;78.42;97977.76;106203;1277;22551;-78
2022/02/04 13:56:43;;;;;;;36.30;20.00;;;;;;;4.77;78.38;97978.78;106075;1277;137625;-78
2022/02/04 13:59:22;;;;;;;37.20;19.50;;;;;;;4.75;78.47;97975.23;106257;1277;22588;-77
2022/02/04 14:01:57;;;;;;;32.20;18.30;;;;;;;4.76;78.63;97976.84;106141;1278;138602;-78
2022/02/04 14:04:27;;;;;;;29.60;15.40;;;;;;;4.76;78.50;97972.53;106249;1277;22568;-77
2022/02/04 14:07:14;;;;;;;27.60;15.00;;;;;;;4.75;78.21;97974.70;105999;1277;24007;-77
2022/02/04 14:09:50;;;;;;;24.90;13.60;;;;;;;4.71;77.91;97971.23;106105;1277;137690;-78
2022/02/04 14:12:20;;;;;;;26.50;13.90;;;;;;;4.66;77.76;97972.85;106109;1277;25475;-78
2022/02/04 14:14:57;;;;;;;28.90;15.50;;;;;;;4.60;77.49;97972.86;105873;1277;137544;-78
2022/02/04 14:17:31;;;;;;;30.90;15.60;;;;;;;4.55;77.78;97974.26;106111;1277;25370;-78
2022/02/04 14:19:58;;;;;;;31.00;17.00;;;;;;;4.53;77.84;97969.13;105965;1278;138368;-77
2022/02/04 14:22:39;;;;;;;31.40;16.70;;;;;;;4.53;78.04;97966.73;106070;1278;22559;-78
2022/02/04 14:25:06;;;;;;;36.20;18.70;;;;;;;4.50;77.82;97967.88;106078;1277;24264;-77
2022/02/04 14:27:33;;;;;;;37.00;19.00;;;;;;;4.47;77.95;97965.69;105980;1277;137655;-77
2022/02/04 14:30:05;;;;;;;46.90;22.50;;;;;;;4.45;78.02;97966.94;105910;1277;24384;-78
2022/02/04 14:32:46;;;;;;;65.80;28.60;;;;;;;4.42;78.21;97964.73;106064;1277;137672;-78
2022/02/04 14:36:07;;;;;;;94.70;34.10;;;;;;;4.40;78.26;97966.77;106020;1277;22581;-78
2022/02/04 15:00:32;;;;;;;67.10;37.40;;;;;;;4.35;79.03;97969.03;106545;1277;22752;-76
2022/02/04 15:03:13;;;;;;;60.10;30.90;;;;;;;4.35;79.15;97972.05;106755;1277;137822;-76
2022/02/04 15:05:47;;;;;;;57.30;33.20;;;;;;;4.35;79.06;97974.31;106843;1277;25294;-77
2022/02/04 15:08:31;;;;;;;49.80;27.20;;;;;;;4.31;79.15;97975.90;107127;1277;137721;-76
2022/02/04 15:11:03;;;;;;;50.90;25.80;;;;;;;4.29;79.01;97976.05;106399;1277;22575;-77
2022/02/04 15:13:32;;;;;;;50.60;29.80;;;;;;;4.27;78.95;97977.63;106456;1277;22571;-77
2022/02/04 15:16:02;;;;;;;48.60;26.30;;;;;;;4.27;78.76;97979.21;106936;1277;137534;-77
2022/02/04 15:18:29;;;;;;;51.70;26.80;;;;;;;4.25;78.97;97977.27;106964;1277;22618;-77
2022/02/04 15:21:00;;;;;;;48.00;25.90;;;;;;;4.23;78.95;97974.61;107145;1277;137475;-78
2022/02/04 15:23:27;;;;;;;52.50;26.90;;;;;;;4.21;79.15;97970.07;106824;1277;22628;-77
2022/02/04 15:25:56;;;;;;;55.80;29.30;;;;;;;4.18;78.96;97974.61;105959;1279;137734;-77
2022/02/04 15:30:54;;;;;;;47.20;26.10;;;;;;;4.15;79.14;97973.92;106723;1277;26514;-79
2022/02/04 15:33:36;;;;;;;48.30;26.80;;;;;;;4.15;79.18;97975.58;106488;1277;137661;-77
2022/02/04 15:36:04;;;;;;;58.00;26.30;;;;;;;4.14;79.28;97974.27;106167;1277;22706;-76
2022/02/04 15:38:31;;;;;;;59.10;29.70;;;;;;;4.12;79.66;97978.71;106040;1278;137783;-76
2022/02/04 15:40:59;;;;;;;58.40;30.10;;;;;;;4.09;79.70;97978.09;106106;1277;22727;-76
2022/02/04 15:43:28;;;;;;;65.60;33.00;;;;;;;4.06;79.84;97978.15;106307;1277;24340;-76
2022/02/04 15:46:17;;;;;;;62.20;32.50;;;;;;;4.04;79.96;97976.55;106017;1277;138034;-76
2022/02/04 15:51:41;;;;;;;69.00;33.50;;;;;;;4.01;80.18;97977.02;105970;1277;137846;-77
2022/02/04 15:59:40;;;;;;;66.00;30.60;;;;;;;3.91;80.26;97977.81;106236;1277;22560;-76
2022/02/04 16:04:54;;;;;;;73.90;33.20;;;;;;;3.90;80.44;97985.77;105907;1279;22573;-77
2022/02/04 16:07:26;;;;;;;55.50;28.90;;;;;;;3.89;80.44;97986.06;105853;1277;24337;-77
2022/02/04 16:10:51;;;;;;;78.40;40.00;;;;;;;3.87;80.49;97986.05;106238;1277;137538;-77
2022/02/04 16:12:58;;;;;;;80.40;45.10;;;;;;;3.84;80.46;97984.77;105889;1277;22544;-77
2022/02/04 16:18:18;;;;;;;58.50;31.80;;;;;;;3.85;80.61;97978.95;105966;1278;22617;-77
2022/02/04 16:23:31;;;;;;;64.10;33.70;;;;;;;3.85;80.53;97974.61;105947;1277;22561;-77
2022/02/04 16:28:43;;;;;;;73.70;36.90;;;;;;;3.81;80.49;97970.48;106016;1278;25392;-77
2022/02/04 16:31:14;;;;;;;67.00;34.60;;;;;;;3.79;80.49;97968.34;106135;1278;31666;-77
2022/02/04 16:33:46;;;;;;;61.30;31.00;;;;;;;3.79;80.39;97965.68;106056;1279;137980;-77
2022/02/04 16:36:17;;;;;;;62.60;30.60;;;;;;;3.79;80.28;97967.25;106143;1278;22551;-77
2022/02/04 16:38:54;;;;;;;49.60;26.20;;;;;;;3.79;80.34;97966.77;106200;1278;137459;-77
2022/02/04 16:41:31;;;;;;;53.80;27.70;;;;;;;3.79;80.22;97962.66;105996;1279;25317;-77
2022/02/04 16:43:59;;;;;;;46.50;25.20;;;;;;;3.78;80.29;97961.88;106300;1277;138890;-77
2022/02/04 16:46:26;;;;;;;47.10;23.30;;;;;;;3.78;80.03;97959.60;106293;1278;22995;-78
2022/02/04 16:48:53;;;;;;;48.90;23.90;;;;;;;3.79;79.95;97957.48;105780;1277;22719;-76
2022/02/04 16:51:20;;;;;;;47.60;24.00;;;;;;;3.80;80.02;97955.52;105952;1276;137624;-76
2022/02/04 16:53:47;;;;;;;53.70;27.40;;;;;;;3.80;79.95;97957.09;106015;1277;22579;-77
2022/02/04 16:56:14;;;;;;;53.60;28.40;;;;;;;3.80;79.95;97951.38;106194;1277;137739;-77
2022/02/04 16:58:41;;;;;;;48.60;24.20;;;;;;;3.80;80.03;97952.99;106549;1277;23008;-77
2022/02/04 17:01:09;;;;;;;46.40;25.30;;;;;;;3.80;80.05;97954.45;106000;1277;22546;-77
2022/02/04 17:03:36;;;;;;;54.40;26.80;;;;;;;3.80;79.97;97951.22;106374;1278;138257;-77
2022/02/04 17:06:04;;;;;;;49.50;27.00;;;;;;;3.82;79.92;97954.23;106120;1279;22559;-77
2022/02/04 17:11:07;;;;;;;52.70;25.90;;;;;;;3.84;80.11;97950.08;106222;1277;24326;-77
2022/02/04 17:13:34;;;;;;;50.90;26.10;;;;;;;3.86;80.05;97947.92;106514;1277;22578;-77
2022/02/04 17:16:02;;;;;;;48.00;23.10;;;;;;;3.86;80.05;97945.68;106341;1277;137445;-79
2022/02/04 17:18:30;;;;;;;47.70;23.90;;;;;;;3.86;79.85;97946.30;106356;1277;24378;-77
2022/02/04 17:20:57;;;;;;;46.40;23.60;;;;;;;3.85;79.86;97940.17;106184;1277;138345;-77
2022/02/04 17:23:43;;;;;;;46.40;24.40;;;;;;;3.86;79.76;97941.74;106579;1277;24374;-76
2022/02/04 17:26:24;;;;;;;47.90;22.40;;;;;;;3.89;79.71;97942.88;105899;1277;137850;-77
2022/02/04 17:28:52;;;;;;;42.90;21.40;;;;;;;3.90;79.76;97947.78;105902;1279;22645;-77
2022/02/04 17:31:19;;;;;;;40.00;21.20;;;;;;;3.91;79.66;97949.47;105980;1277;22573;-77
2022/02/04 17:33:47;;;;;;;37.30;19.80;;;;;;;3.91;79.46;97954.57;106121;1277;137566;-77
2022/02/04 17:36:14;;;;;;;34.90;18.90;;;;;;;3.88;79.26;97952.21;106114;1277;22637;-77
2022/02/04 17:38:42;;;;;;;34.20;19.00;;;;;;;3.86;79.35;97951.11;106133;1276;137591;-77
2022/02/04 17:41:12;;;;;;;33.00;17.60;;;;;;;3.84;79.23;97953.52;106142;1277;24260;-77
2022/02/04 17:43:42;;;;;;;32.70;17.70;;;;;;;3.84;79.38;97951.58;105903;1279;22655;-77
2022/02/04 17:46:09;;;;;;;39.40;19.90;;;;;;;3.83;79.32;97953.98;106474;1277;137456;-78
2022/02/04 17:48:56;;;;;;;57.80;29.20;;;;;;;3.81;79.11;97960.37;105800;1277;23285;-77
2022/02/04 17:51:50;;;;;;;37.80;19.90;;;;;;;3.78;79.29;97964.23;105994;1277;137833;-76
2022/02/04 17:54:17;;;;;;;33.50;18.00;;;;;;;3.77;79.33;97966.06;106074;1277;22549;-77
2022/02/04 18:07:09;;;;;;;35.60;18.70;;;;;;;3.67;78.89;97957.32;106312;1277;22620;-78
2022/02/04 18:09:38;;;;;;;39.90;21.20;;;;;;;3.67;78.94;97953.58;106206;1278;137575;-78
2022/02/04 18:12:07;;;;;;;49.80;24.50;;;;;;;3.67;79.22;97946.55;106530;1276;22796;-78
2022/02/04 18:14:34;;;;;;;52.50;25.70;;;;;;;3.66;79.25;97941.98;106192;1277;137579;-78
2022/02/04 18:17:01;;;;;;;59.20;28.40;;;;;;;3.66;79.24;97943.65;106200;1277;22658;-77
2022/02/04 18:19:28;;;;;;;51.50;24.80;;;;;;;3.66;79.22;97944.03;106049;1277;22557;-77
2022/02/04 18:21:55;;;;;;;49.30;24.20;;;;;;;3.67;79.20;97944.89;105974;1277;138745;-77